Time;durP1;ratioP1;P1;durP2;ratioP2;P2;SDS_P1;SDS_P2;PMS_P1;PMS_P2;Temp;Humidity;BMP_temperature;BMP_pressure;BME280_temperature;BME280_humidity;BME280_pressure;Samples;Min_cycle;Max_cycle;Signal;HPM_P1;HPM_P2
2022/02/09 00:06:39;;;;;;;5.18;2.50;;;;;;;13.28;56.86;102607.94;5012276;28;123667;-67
2022/02/09 00:09:06;;;;;;;5.10;2.15;;;;;;;13.27;57.01;102600.84;5013014;28;108890;-68
2022/02/09 00:11:48;;;;;;;3.65;2.17;;;;;;;13.26;56.92;102601.78;5012963;28;109891;-67
2022/02/09 00:17:16;;;;;;;4.18;2.25;;;;;;;13.26;57.03;102588.50;5012495;28;122997;-67
2022/02/09 00:38:53;;;;;;;5.60;2.05;;;;;;;13.22;57.29;102597.44;5012122;28;122960;-67
2022/02/09 01:57:18;;;;;;;4.22;2.00;;;;;;;12.90;59.05;102563.75;5010198;28;109161;-67
2022/02/09 01:59:47;;;;;;;3.65;2.40;;;;;;;12.91;59.06;102561.06;5011543;28;109675;-67
2022/02/09 02:02:15;;;;;;;2.70;2.05;;;;;;;12.91;58.90;102566.38;5011281;28;124054;-67
2022/02/09 02:04:44;;;;;;;3.28;2.17;;;;;;;12.91;59.05;102561.06;5012068;28;123763;-67
2022/02/09 02:07:24;;;;;;;2.70;2.10;;;;;;;12.92;58.86;102561.94;5009452;28;109212;-67
2022/02/09 02:09:53;;;;;;;3.60;2.17;;;;;;;12.93;59.05;102559.22;4990637;28;109344;-67
2022/02/09 02:12:23;;;;;;;2.72;1.88;;;;;;;12.94;58.89;102558.34;4990181;28;124046;-67
2022/02/09 02:15:14;;;;;;;4.20;2.20;;;;;;;12.94;59.34;102553.00;4991002;28;124544;-67
2022/02/09 02:17:46;;;;;;;3.05;2.10;;;;;;;12.96;58.89;102548.53;4996285;28;109621;-67
2022/02/09 02:20:28;;;;;;;3.30;2.00;;;;;;;12.96;58.84;102543.19;4993179;28;108721;-68
2022/02/09 02:23:22;;;;;;;3.72;1.73;;;;;;;12.94;58.96;102542.38;4994106;28;124003;-68
2022/02/09 02:26:12;;;;;;;3.75;1.90;;;;;;;12.93;58.88;102540.63;5012973;28;123982;-67
2022/02/09 02:28:57;;;;;;;4.55;2.17;;;;;;;12.94;58.95;102529.09;5011318;28;109887;-68
2022/02/09 02:31:52;;;;;;;;;;;;;;;12.91;58.88;102529.16;5011600;28;109806;-67
2022/02/09 02:40:12;;;;;;;3.08;2.10;;;;;;;12.91;58.94;102526.50;5012247;28;109620;-67
2022/02/09 02:43:33;;;;;;;3.40;2.03;;;;;;;12.91;58.88;102521.19;5014199;28;107889;-68
2022/02/09 02:46:17;;;;;;;4.05;2.03;;;;;;;12.92;58.85;102536.22;5014992;28;124619;-67
2022/02/09 03:13:05;;;;;;;3.65;2.60;;;;;;;12.94;58.89;102518.44;5013796;28;108986;-67
2022/02/09 03:20:47;;;;;;;4.18;3.00;;;;;;;12.96;59.01;102516.59;5011228;28;124998;-68
2022/02/09 03:31:19;;;;;;;3.70;2.67;;;;;;;13.02;58.79;102505.78;5010792;28;123563;-67
2022/02/09 03:47:48;;;;;;;4.82;3.13;;;;;;;12.88;59.32;102483.16;5012630;28;109271;-68
2022/02/09 03:53:27;;;;;;;4.70;3.13;;;;;;;12.80;59.29;102488.69;5011911;28;123476;-68
2022/02/09 03:56:24;;;;;;;4.63;2.97;;;;;;;12.77;59.66;102488.75;5011761;28;109564;-68
2022/02/09 03:58:52;;;;;;;5.72;2.97;;;;;;;12.77;59.72;102488.75;5011846;28;109444;-68
2022/02/09 04:01:26;;;;;;;4.45;2.92;;;;;;;12.75;59.79;102478.19;5013538;28;124539;-68
2022/02/09 04:03:53;;;;;;;4.60;3.15;;;;;;;12.76;59.75;102481.72;5013978;28;124418;-68
2022/02/09 04:06:20;;;;;;;4.68;3.28;;;;;;;12.75;59.71;102486.19;5012530;28;109657;-68
2022/02/09 04:08:54;;;;;;;4.88;3.30;;;;;;;12.76;59.99;102489.69;5013586;28;109302;-68
2022/02/09 04:11:28;;;;;;;4.32;3.30;;;;;;;12.75;59.78;102477.31;5012374;28;124138;-67
2022/02/09 04:36:14;;;;;;;5.40;3.75;;;;;;;12.63;59.90;102476.72;5012747;28;123976;-67
2022/02/09 04:39:03;;;;;;;7.22;4.10;;;;;;;12.61;59.99;102489.19;5013157;28;109462;-67
2022/02/09 04:41:53;;;;;;;5.88;3.58;;;;;;;12.60;59.97;102487.47;5010209;28;108673;-68
2022/02/09 04:49:53;;;;;;;5.78;3.60;;;;;;;12.57;60.31;102487.53;5013962;28;108516;-67
2022/02/09 04:52:33;;;;;;;4.38;3.33;;;;;;;12.56;60.16;102484.91;5011544;28;108838;-68
2022/02/09 04:57:53;;;;;;;5.55;3.47;;;;;;;12.55;60.27;102468.09;5011744;28;122733;-68
2022/02/09 05:00:45;;;;;;;4.28;3.20;;;;;;;12.53;60.26;102475.25;5011147;28;110133;-67
2022/02/09 05:03:39;;;;;;;5.30;3.20;;;;;;;12.51;60.07;102471.75;5012734;28;108236;-67
2022/02/09 05:25:40;;;;;;;4.75;2.70;;;;;;;12.47;60.41;102464.78;5011760;28;108688;-67
2022/02/09 05:28:16;;;;;;;4.25;2.65;;;;;;;12.48;60.43;102460.34;5010605;28;123969;-67
2022/02/09 05:30:45;;;;;;;5.03;2.75;;;;;;;12.49;60.13;102457.66;5010936;28;124811;-67
2022/02/09 05:33:13;;;;;;;6.10;2.72;;;;;;;12.51;60.08;102466.44;5012114;28;109053;-67
2022/02/09 05:35:47;;;;;;;4.38;2.50;;;;;;;12.50;60.36;102464.69;5010347;28;109556;-68
2022/02/09 05:38:16;;;;;;;4.38;2.63;;;;;;;12.49;60.03;102468.28;5009270;28;123837;-68
2022/02/09 05:40:44;;;;;;;5.18;2.50;;;;;;;12.49;60.10;102473.59;5008990;28;124617;-68
2022/02/09 05:43:12;;;;;;;4.82;2.60;;;;;;;12.49;60.29;102473.59;5012658;28;109255;-68
2022/02/09 05:56:41;;;;;;;3.00;1.73;;;;;;;12.40;60.16;102447.25;5013992;28;109197;-67
2022/02/09 06:01:37;;;;;;;4.22;2.00;;;;;;;12.37;60.38;102457.97;5012537;28;123609;-68
2022/02/09 06:04:04;;;;;;;2.38;1.38;;;;;;;12.37;60.41;102457.97;5016099;28;110042;-69
2022/02/09 06:06:32;;;;;;;3.70;1.60;;;;;;;12.35;60.23;102460.66;5014202;28;109985;-68
2022/02/09 06:09:01;;;;;;;3.15;1.73;;;;;;;12.35;60.33;102465.09;5013571;28;124070;-68
2022/02/09 06:11:40;;;;;;;2.95;1.70;;;;;;;12.35;60.40;102459.78;5011116;28;124220;-67
2022/02/09 06:22:02;;;;;;;2.28;1.50;;;;;;;12.31;60.18;102468.75;5013106;28;124511;-67
2022/02/09 06:24:30;;;;;;;3.10;1.67;;;;;;;12.27;60.25;102468.81;5013010;28;109137;-68
2022/02/09 06:26:57;;;;;;;2.38;1.67;;;;;;;12.26;60.32;102461.78;4998407;28;107779;-67
2022/02/09 06:29:25;;;;;;;2.65;1.63;;;;;;;12.25;60.41;102465.34;5012111;28;125417;-68
2022/02/09 06:31:52;;;;;;;2.55;1.70;;;;;;;12.24;60.25;102463.63;5012487;28;124107;-67
2022/02/09 06:34:21;;;;;;;2.80;1.70;;;;;;;12.23;60.51;102467.16;5014403;28;109042;-67
2022/02/09 06:37:00;;;;;;;2.75;1.77;;;;;;;12.23;60.51;102464.50;5013015;28;109182;-67
2022/02/09 06:39:29;;;;;;;3.95;1.75;;;;;;;12.22;60.61;102470.75;5014831;28;124646;-67
2022/02/09 06:41:57;;;;;;;3.00;1.85;;;;;;;12.23;60.58;102469.81;5011915;28;124734;-67
2022/02/09 06:44:25;;;;;;;3.60;1.80;;;;;;;12.23;60.57;102467.16;5012862;28;109183;-67
2022/02/09 06:46:53;;;;;;;3.30;2.00;;;;;;;12.24;60.64;102474.25;5014554;28;109055;-67
2022/02/09 06:49:21;;;;;;;3.58;1.90;;;;;;;12.22;60.63;102476.06;5012156;28;124114;-67
2022/02/09 06:51:49;;;;;;;3.10;2.10;;;;;;;12.24;60.54;102468.94;5011602;28;124563;-67
2022/02/09 06:54:30;;;;;;;3.38;2.17;;;;;;;12.23;60.55;102467.16;5013871;28;109640;-67
2022/02/09 06:57:05;;;;;;;3.35;2.05;;;;;;;12.25;60.65;102468.00;5013569;28;109659;-68
2022/02/09 06:59:34;;;;;;;3.33;1.98;;;;;;;12.24;60.58;102468.03;5013429;28;123530;-67
2022/02/09 07:02:07;;;;;;;3.72;1.83;;;;;;;12.22;60.48;102476.06;5011641;28;124161;-68
2022/02/09 07:04:35;;;;;;;3.28;1.95;;;;;;;12.18;60.58;102474.38;5014683;28;110090;-68
2022/02/09 07:07:06;;;;;;;3.60;2.08;;;;;;;12.16;60.79;102476.19;5013474;28;108035;-68
2022/02/09 07:09:34;;;;;;;4.43;2.47;;;;;;;12.14;60.67;102472.72;5012296;28;124366;-67
2022/02/09 07:12:02;;;;;;;4.10;2.35;;;;;;;12.13;60.77;102471.00;5012520;28;123734;-67
2022/02/09 07:14:30;;;;;;;6.28;2.65;;;;;;;12.12;60.92;102474.53;5013442;28;109137;-68
2022/02/09 07:16:58;;;;;;;3.83;2.42;;;;;;;12.12;60.93;102469.22;5011841;28;109411;-68
2022/02/09 07:19:27;;;;;;;5.22;2.50;;;;;;;12.14;61.06;102471.84;5014587;28;124647;-67
2022/02/09 07:21:55;;;;;;;4.47;2.60;;;;;;;12.12;61.01;102469.22;5010636;28;123606;-67
2022/02/09 07:24:22;;;;;;;5.95;2.63;;;;;;;12.12;60.91;102469.22;5013791;28;109455;-67
2022/02/09 07:27:11;;;;;;;4.65;2.67;;;;;;;12.11;61.15;102455.97;5012715;28;109164;-67
2022/02/09 07:29:37;;;;;;;4.68;2.72;;;;;;;12.10;61.02;102471.06;5015136;28;124397;-67
2022/02/09 07:32:05;;;;;;;4.07;2.80;;;;;;;12.11;61.32;102467.50;5011422;28;124599;-68
2022/02/09 07:34:32;;;;;;;5.28;2.80;;;;;;;12.10;61.27;102473.72;5013006;28;109461;-68
2022/02/09 07:36:59;;;;;;;4.75;2.92;;;;;;;12.10;61.10;102465.75;5012763;28;108867;-67
2022/02/09 07:39:26;;;;;;;5.57;2.92;;;;;;;12.09;61.33;102469.28;5013864;28;123876;-67
2022/02/09 07:41:55;;;;;;;6.88;2.95;;;;;;;12.09;61.11;102469.28;5012564;28;123687;-67
2022/02/09 07:44:45;;;;;;;6.25;3.47;;;;;;;12.10;61.19;102465.75;5014930;28;110345;-68
2022/02/09 07:52:48;;;;;;;7.35;3.90;;;;;;;12.10;61.38;102455.13;5013986;28;124633;-67
2022/02/09 07:55:15;;;;;;;5.68;3.70;;;;;;;12.11;61.44;102467.50;5012343;28;109318;-67
2022/02/09 07:57:42;;;;;;;6.90;4.13;;;;;;;12.11;61.37;102467.50;5013386;28;109226;-67
2022/02/09 08:00:13;;;;;;;6.40;4.10;;;;;;;12.13;61.38;102460.38;5011121;28;124044;-67
2022/02/09 08:02:43;;;;;;;6.07;3.97;;;;;;;12.15;61.62;102453.22;5013335;28;124449;-67
2022/02/09 08:05:11;;;;;;;7.80;4.57;;;;;;;12.17;61.42;102455.84;5013815;28;108168;-68
2022/02/09 08:07:38;;;;;;;8.27;4.30;;;;;;;12.18;61.55;102458.44;5014237;28;109018;-67
2022/02/09 08:10:14;;;;;;;6.88;4.60;;;;;;;12.22;61.77;102454.81;5012386;28;123343;-68
2022/02/09 08:23:52;;;;;;;8.73;4.55;;;;;;;12.43;61.59;102460.44;5013275;28;123945;-67
2022/02/09 08:34:11;;;;;;;11.60;4.63;;;;;;;12.55;61.51;102452.16;5011054;28;124481;-68
2022/02/09 08:36:38;;;;;;;12.20;5.00;;;;;;;12.58;61.52;102452.09;5011504;28;109948;-68
2022/02/09 08:39:06;;;;;;;7.30;4.20;;;;;;;12.62;61.37;102453.72;5012604;28;110412;-67
2022/02/09 08:41:34;;;;;;;6.35;3.85;;;;;;;12.66;61.27;102455.38;5011705;28;123886;-67
2022/02/09 08:44:03;;;;;;;6.85;4.15;;;;;;;12.69;61.37;102461.53;5013822;28;123778;-67
2022/02/09 08:46:30;;;;;;;7.15;4.03;;;;;;;12.71;61.27;102462.34;5013991;28;109714;-67
2022/02/09 08:48:57;;;;;;;6.57;4.00;;;;;;;12.70;61.12;102460.63;5011283;28;108879;-67
2022/02/09 08:51:27;;;;;;;7.18;4.07;;;;;;;12.70;61.06;102457.97;5011035;28;123793;-68
2022/02/09 08:53:55;;;;;;;7.15;3.92;;;;;;;12.71;61.04;102457.03;5014002;28;123985;-67
2022/02/09 08:56:24;;;;;;;7.30;4.30;;;;;;;12.72;60.85;102459.66;5011240;28;109078;-67
2022/02/09 08:58:51;;;;;;;7.25;4.07;;;;;;;12.72;61.05;102461.47;5013610;28;109488;-67
2022/02/09 09:01:28;;;;;;;7.75;4.18;;;;;;;12.72;60.91;102458.81;5009523;28;124045;-68
2022/02/09 09:03:59;;;;;;;8.48;4.75;;;;;;;12.73;60.89;102452.56;5012282;28;124238;-67
2022/02/09 09:06:29;;;;;;;6.63;4.03;;;;;;;12.72;60.98;102442.84;5012159;28;109229;-67
2022/02/09 10:34:20;;;;;;;4.47;3.10;;;;;;;12.97;60.32;102470.47;5015066;28;109415;-68
2022/02/09 10:37:00;;;;;;;5.72;3.47;;;;;;;12.98;60.37;102466.91;5012984;28;109303;-68
2022/02/09 10:39:47;;;;;;;5.07;3.38;;;;;;;13.01;60.40;102472.09;5012048;28;123967;-68
2022/02/09 10:44:49;;;;;;;5.70;3.40;;;;;;;13.07;60.19;102464.88;5013256;28;109009;-68
2022/02/09 10:47:36;;;;;;;6.57;3.63;;;;;;;13.09;60.10;102463.03;5015928;28;108674;-67
2022/02/09 10:50:39;;;;;;;6.43;3.67;;;;;;;13.12;60.10;102476.25;5011924;28;124361;-68
2022/02/09 10:53:11;;;;;;;5.22;3.47;;;;;;;13.14;59.90;102471.75;5015635;28;123447;-68
2022/02/09 10:55:42;;;;;;;5.70;3.67;;;;;;;13.16;59.89;102469.94;5015872;28;109455;-68
2022/02/09 10:58:22;;;;;;;9.68;3.58;;;;;;;13.18;59.81;102473.41;5013207;28;109283;-67
2022/02/09 11:00:51;;;;;;;5.20;3.08;;;;;;;13.19;59.93;102470.72;5013655;28;123633;-68
2022/02/09 11:03:25;;;;;;;4.80;3.17;;;;;;;13.20;59.91;102466.25;5014549;28;124558;-68
2022/02/09 11:05:58;;;;;;;6.05;3.35;;;;;;;13.22;59.88;102467.06;5012954;28;109401;-68
2022/02/09 11:08:25;;;;;;;5.45;3.28;;;;;;;13.24;59.74;102474.13;5016052;28;109292;-68
2022/02/09 11:10:54;;;;;;;6.00;3.13;;;;;;;13.24;59.74;102470.56;5011529;28;124126;-68
2022/02/09 11:13:21;;;;;;;7.30;2.92;;;;;;;13.22;59.73;102469.72;5014423;28;124273;-68
2022/02/09 11:15:49;;;;;;;6.30;3.33;;;;;;;13.18;59.46;102465.44;5013813;28;110189;-68
2022/02/09 11:18:21;;;;;;;6.35;3.58;;;;;;;13.16;59.80;102467.25;5014718;28;110172;-68
2022/02/09 11:21:03;;;;;;;6.00;3.30;;;;;;;13.13;59.68;102475.31;5011569;28;123854;-68
2022/02/09 11:24:01;;;;;;;5.25;3.30;;;;;;;13.11;59.86;102471.84;5014304;28;124235;-68
2022/02/09 11:26:47;;;;;;;6.80;3.45;;;;;;;13.09;59.64;102468.34;5014563;28;109039;-68
2022/02/09 11:35:15;;;;;;;4.97;3.33;;;;;;;13.15;60.18;102463.75;5013943;28;123886;-67
2022/02/09 11:37:48;;;;;;;6.85;3.65;;;;;;;13.19;60.05;102469.84;5012671;28;109315;-68
2022/02/09 11:40:31;;;;;;;5.50;3.42;;;;;;;13.21;60.07;102473.34;5012494;28;109244;-68
2022/02/09 11:43:35;;;;;;;6.35;3.65;;;;;;;13.21;59.99;102463.56;5012760;28;124682;-68
2022/02/09 11:46:25;;;;;;;6.40;3.70;;;;;;;13.24;60.22;102466.13;5014099;28;125343;-68
2022/02/09 11:49:19;;;;;;;7.20;3.78;;;;;;;13.27;60.06;102459.84;5013424;28;109198;-67
2022/02/09 12:01:07;;;;;;;7.25;4.55;;;;;;;13.54;60.23;102449.28;5011490;28;109038;-68
2022/02/09 12:09:35;;;;;;;7.25;4.35;;;;;;;13.75;60.09;102448.59;5011490;28;123784;-67
2022/02/09 12:12:08;;;;;;;7.00;4.07;;;;;;;13.79;59.91;102439.59;5011184;28;110770;-67
2022/02/09 12:19:58;;;;;;;7.90;4.38;;;;;;;14.03;59.85;102426.34;5012528;28;122583;-68
2022/02/09 12:22:29;;;;;;;;;;;;;;;14.09;59.90;102419.94;5012518;28;109270;-68
2022/02/09 12:25:04;;;;;;;6.03;3.78;;;;;;;14.17;59.58;102413.44;5013431;28;107789;-67
2022/02/09 12:27:32;;;;;;;7.18;3.75;;;;;;;14.21;59.54;102404.41;5011147;28;124052;-68
2022/02/09 12:30:04;;;;;;;5.93;3.78;;;;;;;14.27;59.41;102407.78;5011128;28;124307;-68
2022/02/09 12:32:35;;;;;;;7.07;3.67;;;;;;;14.32;59.30;102405.84;5012544;28;109367;-67
2022/02/09 12:35:11;;;;;;;6.35;3.47;;;;;;;14.35;59.03;102395.03;5013316;28;108723;-67
2022/02/09 12:37:45;;;;;;;7.88;4.00;;;;;;;14.35;59.03;102401.28;5010464;28;124146;-68
2022/02/09 12:40:18;;;;;;;5.93;3.60;;;;;;;14.35;58.94;102395.94;5010225;28;124463;-68
2022/02/09 12:42:50;;;;;;;6.13;3.60;;;;;;;14.37;58.86;102393.19;5012267;28;109626;-67
2022/02/09 12:45:22;;;;;;;4.28;3.25;;;;;;;14.39;58.93;102396.66;5012897;28;109474;-68
2022/02/09 12:47:57;;;;;;;5.13;3.42;;;;;;;14.39;58.88;102396.66;5010966;28;123967;-68
2022/02/09 12:50:30;;;;;;;5.65;3.53;;;;;;;14.39;58.71;102391.34;5012685;28;123903;-68
2022/02/09 12:52:57;;;;;;;4.32;3.22;;;;;;;14.41;58.67;102394.84;5012498;28;108316;-68
2022/02/09 12:55:30;;;;;;;5.68;3.78;;;;;;;14.41;58.75;102394.84;5012814;28;109336;-68
2022/02/09 12:58:03;;;;;;;5.72;3.97;;;;;;;14.42;58.88;102396.56;5010385;28;124295;-68
2022/02/09 13:00:43;;;;;;;5.18;3.28;;;;;;;14.43;58.86;102393.00;5010142;28;124189;-68
2022/02/09 13:03:13;;;;;;;7.57;3.72;;;;;;;14.45;58.67;102391.13;5013006;28;110412;-67
2022/02/09 13:05:51;;;;;;;5.70;3.55;;;;;;;14.44;58.52;102389.38;5011036;28;109898;-68
2022/02/09 13:08:29;;;;;;;7.38;3.78;;;;;;;14.42;58.51;102385.91;5012069;28;123971;-67
2022/02/09 13:11:19;;;;;;;6.30;3.55;;;;;;;14.40;58.56;102393.09;5014600;28;96753;-67
2022/02/09 13:13:55;;;;;;;4.68;3.15;;;;;;;14.36;58.44;102386.13;5012884;28;108825;-67
2022/02/09 13:17:05;;;;;;;6.72;3.60;;;;;;;14.32;58.42;102389.84;5009691;28;109290;-67
2022/02/09 14:15:45;;;;;;;7.00;4.00;;;;;;;14.30;58.16;102367.72;5013183;28;124112;-68
2022/02/09 14:18:32;;;;;;;6.07;3.83;;;;;;;14.30;58.00;102365.03;5016340;28;123401;-68
2022/02/09 14:35:02;;;;;;;5.13;3.58;;;;;;;14.32;57.91;102360.53;5016422;28;109406;-67
2022/02/09 14:51:40;;;;;;;7.18;4.43;;;;;;;14.27;57.84;102370.47;5014585;28;124515;-68
2022/02/09 14:54:29;;;;;;;8.40;4.20;;;;;;;14.27;57.80;102370.47;5013555;28;110123;-67
2022/02/09 14:57:02;;;;;;;10.52;4.60;;;;;;;14.28;57.73;102372.19;5013079;28;110225;-68
2022/02/09 15:02:07;;;;;;;9.05;5.40;;;;;;;14.26;57.64;102374.06;5011252;28;123716;-68
2022/02/09 15:09:51;;;;;;;6.68;4.90;;;;;;;14.24;57.45;102370.56;5012444;28;123827;-68
2022/02/09 15:12:34;;;;;;;10.13;6.13;;;;;;;14.22;57.41;102373.28;5014068;28;123223;-68
2022/02/09 15:15:13;;;;;;;8.35;5.75;;;;;;;14.19;57.50;102374.28;5013809;28;109491;-68
2022/02/09 15:18:19;;;;;;;8.82;5.57;;;;;;;14.19;57.47;102368.09;5011733;28;108906;-68
2022/02/09 15:23:24;;;;;;;7.90;5.32;;;;;;;14.15;57.57;102367.31;5014317;28;125050;-68
2022/02/09 15:25:54;;;;;;;8.45;5.32;;;;;;;14.14;57.43;102370.91;5015869;28;108620;-68
2022/02/09 15:28:21;;;;;;;7.30;5.43;;;;;;;14.14;57.38;102378.03;5012730;28;109053;-68
2022/02/09 15:30:52;;;;;;;9.43;5.65;;;;;;;14.15;57.38;102371.78;5013975;28;123842;-68
2022/02/09 15:33:24;;;;;;;8.43;5.63;;;;;;;14.16;57.53;102369.03;5014000;28;124550;-68
2022/02/09 15:36:15;;;;;;;7.95;5.65;;;;;;;14.15;57.29;102364.66;5012597;28;109126;-68
2022/02/09 15:38:46;;;;;;;7.30;5.13;;;;;;;14.13;57.34;102369.19;5012875;28;108935;-68
2022/02/09 15:44:08;;;;;;;10.90;5.78;;;;;;;14.12;57.38;102367.41;5014462;28;123750;-68
2022/02/09 16:06:15;;;;;;;7.30;5.53;;;;;;;14.03;57.34;102351.75;5012235;28;125094;-68
2022/02/09 16:22:30;;;;;;;12.55;6.80;;;;;;;13.99;57.45;102339.47;5012316;28;108811;-68
2022/02/09 16:46:30;;;;;;;9.80;6.88;;;;;;;13.93;57.41;102339.72;5010581;28;124067;-68
2022/02/09 16:49:05;;;;;;;9.23;6.65;;;;;;;13.93;57.46;102334.38;5011216;28;123721;-68
2022/02/09 16:51:56;;;;;;;11.02;6.70;;;;;;;13.93;57.43;102339.72;5010524;28;109021;-68
2022/02/09 17:08:25;;;;;;;9.90;6.93;;;;;;;13.91;57.48;102341.56;5010511;28;124883;-68
2022/02/09 17:19:38;;;;;;;12.02;8.35;;;;;;;13.78;57.52;102326.00;5009755;28;124070;-68
2022/02/09 17:22:06;;;;;;;14.55;8.68;;;;;;;13.77;57.42;102334.91;5010201;28;123741;-68
2022/02/09 17:24:36;;;;;;;11.63;8.50;;;;;;;13.78;57.47;102333.97;5012066;28;109934;-68
2022/02/09 17:27:06;;;;;;;12.20;8.32;;;;;;;13.79;57.54;102349.03;5011098;28;109420;-68
2022/02/09 17:32:33;;;;;;;10.70;7.65;;;;;;;13.81;57.55;102339.22;5010728;28;123998;-68
2022/02/09 17:35:10;;;;;;;13.02;7.55;;;;;;;13.81;57.59;102341.00;5010250;28;110597;-68
2022/02/09 17:54:41;;;;;;;13.52;8.50;;;;;;;13.72;57.55;102336.84;5015328;28;123157;-69
2022/02/09 17:56:55;;;;;;;13.20;8.50;;;;;;;13.72;57.63;102336.84;5016765;28;109756;-68
2022/02/09 17:59:24;;;;;;;12.68;8.63;;;;;;;13.72;57.59;102336.84;5013869;28;108814;-68
2022/02/09 18:01:52;;;;;;;11.68;8.60;;;;;;;13.72;57.64;102331.53;5011841;28;123779;-68
2022/02/09 18:04:22;;;;;;;12.85;8.98;;;;;;;13.72;57.80;102330.66;5015344;28;124556;-68
2022/02/09 18:06:57;;;;;;;13.05;8.82;;;;;;;13.71;57.62;102323.59;5013710;28;109365;-68
2022/02/09 18:09:32;;;;;;;14.60;9.40;;;;;;;13.72;57.64;102336.84;5012644;28;109185;-68
2022/02/09 19:04:26;;;;;;;17.17;10.60;;;;;;;13.65;57.84;102282.06;5013918;28;109210;-68
2022/02/09 19:17:46;;;;;;;17.50;11.32;;;;;;;13.64;57.79;102269.69;5011679;28;124275;-68
2022/02/09 19:31:13;;;;;;;22.13;11.20;;;;;;;13.61;57.76;102264.47;5012608;28;122786;-68
2022/02/09 19:42:46;;;;;;;;;;;;;;;13.57;57.82;102268.16;5012300;28;123773;-68
2022/02/09 19:47:54;;;;;;;18.27;10.65;;;;;;;13.54;58.16;102260.28;5012158;28;110212;-68
2022/02/09 19:50:40;;;;;;;18.83;10.93;;;;;;;13.53;57.94;102255.91;5013155;28;123887;-68
2022/02/09 19:53:39;;;;;;;19.33;10.80;;;;;;;13.52;57.96;102248.81;5012738;28;123942;-68
2022/02/09 19:56:12;;;;;;;16.65;10.77;;;;;;;13.51;58.03;102252.44;5011821;28;109096;-68
2022/02/09 19:58:50;;;;;;;18.38;11.25;;;;;;;13.52;58.00;102256.81;5013005;28;110503;-68
2022/02/09 20:01:19;;;;;;;19.48;12.10;;;;;;;13.51;57.84;102247.97;5012435;28;123897;-68
2022/02/09 20:03:47;;;;;;;19.42;11.57;;;;;;;13.51;57.85;102247.09;5013112;28;123580;-68
2022/02/09 20:06:14;;;;;;;19.27;11.98;;;;;;;13.51;57.91;102252.44;5011965;28;109289;-68
2022/02/09 20:08:42;;;;;;;18.27;11.38;;;;;;;13.52;57.91;102248.81;5011740;28;110253;-68
2022/02/09 20:11:14;;;;;;;18.73;11.07;;;;;;;13.52;57.63;102248.81;5010319;28;124094;-68
2022/02/09 20:13:42;;;;;;;19.80;11.70;;;;;;;13.53;57.84;102250.56;5013367;28;124640;-68
2022/02/09 20:16:10;;;;;;;20.33;11.57;;;;;;;13.52;57.89;102243.50;5013857;28;110073;-68
2022/02/09 20:18:37;;;;;;;18.85;11.23;;;;;;;13.51;57.93;102247.97;5014089;28;110043;-68
2022/02/09 20:21:05;;;;;;;20.15;11.00;;;;;;;13.52;57.89;102243.50;5010759;28;124604;-68
2022/02/09 20:23:33;;;;;;;17.25;10.88;;;;;;;13.51;58.25;102241.78;5012860;28;124411;-68
2022/02/09 20:26:04;;;;;;;16.08;10.38;;;;;;;13.51;58.05;102241.78;5010010;28;109038;-68
2022/02/09 20:28:31;;;;;;;18.27;10.98;;;;;;;13.50;57.90;102245.34;5011001;28;110102;-68
2022/02/09 20:31:24;;;;;;;17.73;10.27;;;;;;;13.50;57.92;102245.34;5012192;28;123864;-68
2022/02/09 20:33:58;;;;;;;18.35;10.85;;;;;;;13.49;57.93;102243.63;5013352;28;124337;-68
2022/02/09 20:36:26;;;;;;;18.40;10.50;;;;;;;13.48;58.06;102241.88;5012898;28;108989;-68
2022/02/09 20:38:57;;;;;;;19.23;11.43;;;;;;;13.48;57.94;102241.88;5010786;28;110043;-68
2022/02/09 20:41:24;;;;;;;20.23;11.43;;;;;;;13.47;58.03;102240.13;5012427;28;123947;-69
2022/02/09 20:44:16;;;;;;;19.88;12.20;;;;;;;13.49;57.91;102238.31;5013161;28;123992;-68
2022/02/09 20:46:43;;;;;;;19.55;10.98;;;;;;;13.49;57.98;102238.31;5012533;28;109214;-68
2022/02/09 20:49:10;;;;;;;18.20;11.10;;;;;;;13.51;57.97;102241.78;5012781;28;108849;-68
2022/02/09 20:51:38;;;;;;;20.27;11.70;;;;;;;13.50;58.03;102242.69;5012188;28;123860;-68
2022/02/09 20:54:05;;;;;;;17.75;11.00;;;;;;;13.49;57.98;102240.97;5011780;28;122964;-68
2022/02/09 20:56:33;;;;;;;19.80;11.73;;;;;;;13.49;58.07;102240.97;5011540;28;109573;-68
2022/02/09 20:59:04;;;;;;;20.55;11.95;;;;;;;13.48;57.98;102236.53;5012136;28;109990;-68
2022/02/09 21:01:39;;;;;;;20.13;11.43;;;;;;;13.47;57.87;102241.00;5011483;28;124088;-68
2022/02/09 21:04:09;;;;;;;18.50;10.90;;;;;;;13.47;57.99;102230.38;5013009;28;123172;-68
2022/02/09 21:09:19;;;;;;;15.55;9.90;;;;;;;13.44;58.07;102226.00;5010467;28;110036;-68
2022/02/09 21:12:02;;;;;;;15.55;9.32;;;;;;;13.43;57.96;102224.28;5009763;28;124732;-68
2022/02/09 21:14:52;;;;;;;16.63;9.48;;;;;;;13.44;58.03;102231.31;5008842;28;123976;-68
2022/02/09 21:22:54;;;;;;;14.80;8.80;;;;;;;13.40;57.98;102224.38;5011851;28;123952;-68
2022/02/09 21:31:03;;;;;;;12.40;8.23;;;;;;;13.38;58.07;102220.91;5011327;28;109057;-68
2022/02/09 21:33:26;;;;;;;14.60;8.10;;;;;;;13.38;58.12;102215.56;5011475;28;123887;-68
2022/02/09 21:49:40;;;;;;;12.57;7.53;;;;;;;13.36;58.02;102201.44;5010188;28;108897;-70
2022/02/09 22:19:13;;;;;;;;;;;;;;;13.29;58.14;102173.28;5009783;28;124808;-67
2022/02/09 22:22:44;;;;;;;8.73;5.57;;;;;;;13.29;58.03;102170.63;5011708;28;107802;-67
2022/02/09 22:28:10;;;;;;;9.10;5.18;;;;;;;13.24;57.99;102165.47;5011965;28;123862;-67
2022/02/09 22:50:24;;;;;;;8.50;4.40;;;;;;;13.26;57.83;102152.13;5011658;28;124101;-67
2022/02/09 22:55:57;;;;;;;8.20;4.20;;;;;;;13.25;57.98;102150.38;5012358;28;110177;-67
2022/02/09 22:58:34;;;;;;;9.15;4.25;;;;;;;13.25;57.84;102145.06;5012713;28;109950;-67
2022/02/09 23:01:11;;;;;;;8.25;4.50;;;;;;;13.26;57.74;102141.47;5014213;28;123983;-67
2022/02/09 23:03:59;;;;;;;7.68;4.75;;;;;;;13.24;57.70;102137.97;5011827;28;122973;-67
2022/02/09 23:06:39;;;;;;;8.52;4.43;;;;;;;13.24;57.72;102130.00;5014515;27;108063;-67
